Aérodrome :
LOGIN :

S'inscrire | Disclaimer

   EN    FR    IT 

 










Légende :    VFR   VFR Marginal   IFR   IFR Intensif   IFR Très Intensif
Visi : 
Plafond : 
>= 8 km
>= 3000ft
5 à 8 km
1000 à 3000 ft
1500m à 5 km
500 à 1000 ft
800 à 1500m
200 à 500 ft
< 800m
< 200 ft
Symboles :   Orages  Brouillard  Fortes neiges  Fortes précipitations  Vent > 20 kt
SIGMETs :   Divers  Orages  Givrage  Turbulence  Onde Orograph.  Cendres Volcan.






- Altitude de l'aérodrome : 1213 ft
- Code IATA : SCQ


LEST - Santiago de Compostela

DERNIER METAR :
  • 261100Z 31005KT 260V340 9999 -RA FEW012 SCT017 BKN025 09/06 Q1026 NOSIG

METARs EXPIRÉS :
  • 261030Z 27004KT 220V330 9999 FEW012 SCT020 BKN040 09/06 Q1026 NOSIG
  • 261000Z 29003KT 250V350 9999 FEW008 SCT017 BKN048 10/07 Q1026 NOSIG
  • 260930Z 23003KT 190V280 9999 FEW020 BKN047 08/07 Q1026 NOSIG
  • 260900Z VRB02KT 9999 FEW015 BKN035 08/06 Q1026 TEMPO 3000 RA
  • 260830Z VRB02KT 9999 SCT018 BKN042 07/06 Q1026 TEMPO 3000 RA

TAF TAF LEST
Valide du 26 à 06h jusqu'au 27 à 06h UTC


260500Z 2606/2706 27008KT 9999 SCT010 BKN025 TX11/2614Z TN06/2606Z
TEMPO 2606/2706 3000 -RADZ BR BKN010
TEMPO 2621/2706 0800 BCFG BKN005
TEMPO 2621/2706 0350 FG VV001



MET'MAP, la Météo Aéronautique d'un coup d'oeil ! - Copyright ORBIFLY Décembre 2007 - Disclaimer

ORBIFLY MET'MAP TEAM :

Programmation & Développement : Alexandra Zaïnal
Sur une idée originale de : Baudouin d'Aumeries
Assistance à la programmation : Marc-Olivier Méhu
Soutien technique & logistique : Manuel Goepfert

Contact : metmap@orbifly.com




SOURCES & CREDITS :

   NOAA